sensor_id;sensor_type;location;lat;lon;timestamp;temperature;humidity
12977;DHT22;6553;48.412;9.514;2022-12-24T00:02:14;18.80;63.60
12977;DHT22;6553;48.412;9.514;2022-12-24T00:04:40;18.80;63.70
12977;DHT22;6553;48.412;9.514;2022-12-24T00:07:05;18.80;63.60
12977;DHT22;6553;48.412;9.514;2022-12-24T00:09:31;18.80;63.60
12977;DHT22;6553;48.412;9.514;2022-12-24T00:11:57;18.80;63.60
12977;DHT22;6553;48.412;9.514;2022-12-24T00:14:26;18.80;63.60
12977;DHT22;6553;48.412;9.514;2022-12-24T00:16:51;18.90;63.70
12977;DHT22;6553;48.412;9.514;2022-12-24T00:19:17;18.90;63.80
12977;DHT22;6553;48.412;9.514;2022-12-24T00:21:43;18.80;63.60
12977;DHT22;6553;48.412;9.514;2022-12-24T00:24:08;18.80;63.50
12977;DHT22;6553;48.412;9.514;2022-12-24T00:26:35;18.80;63.60
12977;DHT22;6553;48.412;9.514;2022-12-24T00:29:00;18.80;63.50
12977;DHT22;6553;48.412;9.514;2022-12-24T00:31:26;18.80;63.60
12977;DHT22;6553;48.412;9.514;2022-12-24T00:33:52;18.80;63.50
12977;DHT22;6553;48.412;9.514;2022-12-24T00:36:18;18.80;63.50
12977;DHT22;6553;48.412;9.514;2022-12-24T00:38:45;18.80;63.50
12977;DHT22;6553;48.412;9.514;2022-12-24T00:41:13;18.80;63.40
12977;DHT22;6553;48.412;9.514;2022-12-24T00:43:52;18.80;63.50
12977;DHT22;6553;48.412;9.514;2022-12-24T00:46:22;18.80;63.50
12977;DHT22;6553;48.412;9.514;2022-12-24T00:48:49;18.80;63.40
12977;DHT22;6553;48.412;9.514;2022-12-24T00:51:15;18.80;63.40
12977;DHT22;6553;48.412;9.514;2022-12-24T00:53:42;18.80;63.40
12977;DHT22;6553;48.412;9.514;2022-12-24T00:56:08;18.80;63.40
12977;DHT22;6553;48.412;9.514;2022-12-24T00:58:34;18.80;63.40
12977;DHT22;6553;48.412;9.514;2022-12-24T01:01:00;18.80;64.20
12977;DHT22;6553;48.412;9.514;2022-12-24T01:03:26;18.80;63.40
12977;DHT22;6553;48.412;9.514;2022-12-24T01:06:11;18.80;63.40
12977;DHT22;6553;48.412;9.514;2022-12-24T01:08:42;18.80;63.30
12977;DHT22;6553;48.412;9.514;2022-12-24T01:11:09;18.80;63.30
12977;DHT22;6553;48.412;9.514;2022-12-24T01:13:36;18.80;63.30
12977;DHT22;6553;48.412;9.514;2022-12-24T01:16:03;18.80;63.30
12977;DHT22;6553;48.412;9.514;2022-12-24T01:18:37;18.80;63.30
12977;DHT22;6553;48.412;9.514;2022-12-24T01:21:03;18.80;63.30
12977;DHT22;6553;48.412;9.514;2022-12-24T01:23:30;18.80;63.30
12977;DHT22;6553;48.412;9.514;2022-12-24T01:26:03;18.80;63.30
12977;DHT22;6553;48.412;9.514;2022-12-24T01:28:29;18.80;63.30
12977;DHT22;6553;48.412;9.514;2022-12-24T01:30:56;18.80;63.30
12977;DHT22;6553;48.412;9.514;2022-12-24T01:33:22;18.80;63.20
12977;DHT22;6553;48.412;9.514;2022-12-24T01:35:48;18.70;63.10
12977;DHT22;6553;48.412;9.514;2022-12-24T01:38:14;18.80;63.30
12977;DHT22;6553;48.412;9.514;2022-12-24T01:40:41;18.80;63.20
12977;DHT22;6553;48.412;9.514;2022-12-24T01:43:29;18.70;63.00
12977;DHT22;6553;48.412;9.514;2022-12-24T01:51:16;18.80;63.20
12977;DHT22;6553;48.412;9.514;2022-12-24T01:53:52;18.80;63.20
12977;DHT22;6553;48.412;9.514;2022-12-24T01:56:25;18.70;63.00
12977;DHT22;6553;48.412;9.514;2022-12-24T01:58:56;18.80;63.20
12977;DHT22;6553;48.412;9.514;2022-12-24T02:01:26;18.70;63.00
12977;DHT22;6553;48.412;9.514;2022-12-24T02:03:52;18.80;63.10
12977;DHT22;6553;48.412;9.514;2022-12-24T02:06:19;18.70;63.00
12977;DHT22;6553;48.412;9.514;2022-12-24T02:08:46;18.70;63.00
12977;DHT22;6553;48.412;9.514;2022-12-24T02:11:20;18.80;63.10
12977;DHT22;6553;48.412;9.514;2022-12-24T02:13:55;18.70;63.00
12977;DHT22;6553;48.412;9.514;2022-12-24T02:28:40;18.80;63.00
12977;DHT22;6553;48.412;9.514;2022-12-24T02:31:38;18.80;63.00
12977;DHT22;6553;48.412;9.514;2022-12-24T02:34:27;18.70;62.90
12977;DHT22;6553;48.412;9.514;2022-12-24T02:37:07;18.80;63.00
12977;DHT22;6553;48.412;9.514;2022-12-24T02:39:43;18.70;62.80
12977;DHT22;6553;48.412;9.514;2022-12-24T02:42:18;18.70;62.90
12977;DHT22;6553;48.412;9.514;2022-12-24T02:44:52;18.70;62.90
12977;DHT22;6553;48.412;9.514;2022-12-24T02:47:26;18.70;62.80
12977;DHT22;6553;48.412;9.514;2022-12-24T02:49:53;18.70;62.80
12977;DHT22;6553;48.412;9.514;2022-12-24T02:55:06;18.80;62.80
12977;DHT22;6553;48.412;9.514;2022-12-24T02:58:14;18.70;62.70
12977;DHT22;6553;48.412;9.514;2022-12-24T03:04:17;18.70;62.80
12977;DHT22;6553;48.412;9.514;2022-12-24T03:10:12;18.70;62.80
12977;DHT22;6553;48.412;9.514;2022-12-24T03:13:17;18.70;62.70
12977;DHT22;6553;48.412;9.514;2022-12-24T03:15:46;18.70;62.70
12977;DHT22;6553;48.412;9.514;2022-12-24T03:18:16;18.70;62.60
12977;DHT22;6553;48.412;9.514;2022-12-24T03:21:12;18.70;62.60
12977;DHT22;6553;48.412;9.514;2022-12-24T03:23:42;18.70;62.70
12977;DHT22;6553;48.412;9.514;2022-12-24T03:26:10;18.70;62.70
12977;DHT22;6553;48.412;9.514;2022-12-24T03:28:40;18.70;62.70
12977;DHT22;6553;48.412;9.514;2022-12-24T03:31:07;18.70;62.70
12977;DHT22;6553;48.412;9.514;2022-12-24T03:33:34;18.70;62.60
12977;DHT22;6553;48.412;9.514;2022-12-24T03:36:01;18.70;62.60
12977;DHT22;6553;48.412;9.514;2022-12-24T03:38:28;18.70;62.60
12977;DHT22;6553;48.412;9.514;2022-12-24T03:40:53;18.70;62.60
12977;DHT22;6553;48.412;9.514;2022-12-24T03:43:19;18.70;62.60
12977;DHT22;6553;48.412;9.514;2022-12-24T03:45:45;18.70;62.60
12977;DHT22;6553;48.412;9.514;2022-12-24T03:48:10;18.70;62.60
12977;DHT22;6553;48.412;9.514;2022-12-24T03:50:36;18.70;62.50
12977;DHT22;6553;48.412;9.514;2022-12-24T03:53:02;18.70;62.50
12977;DHT22;6553;48.412;9.514;2022-12-24T03:55:28;18.70;62.50
12977;DHT22;6553;48.412;9.514;2022-12-24T03:57:53;18.70;62.50
12977;DHT22;6553;48.412;9.514;2022-12-24T04:00:20;18.70;62.50
12977;DHT22;6553;48.412;9.514;2022-12-24T04:02:46;18.70;62.50
12977;DHT22;6553;48.412;9.514;2022-12-24T04:05:17;18.70;62.50
12977;DHT22;6553;48.412;9.514;2022-12-24T04:07:45;18.70;62.50
12977;DHT22;6553;48.412;9.514;2022-12-24T04:10:12;18.70;62.50
12977;DHT22;6553;48.412;9.514;2022-12-24T04:12:39;18.70;62.50
12977;DHT22;6553;48.412;9.514;2022-12-24T04:15:06;18.60;62.40
12977;DHT22;6553;48.412;9.514;2022-12-24T04:17:33;18.70;62.50
12977;DHT22;6553;48.412;9.514;2022-12-24T04:19:58;18.60;62.40
12977;DHT22;6553;48.412;9.514;2022-12-24T04:22:24;18.70;62.50
12977;DHT22;6553;48.412;9.514;2022-12-24T04:24:50;18.70;62.50
12977;DHT22;6553;48.412;9.514;2022-12-24T04:27:16;18.60;62.40
12977;DHT22;6553;48.412;9.514;2022-12-24T04:29:42;18.70;62.40
12977;DHT22;6553;48.412;9.514;2022-12-24T04:32:08;18.70;62.40
12977;DHT22;6553;48.412;9.514;2022-12-24T04:34:34;18.70;62.50
12977;DHT22;6553;48.412;9.514;2022-12-24T04:37:01;18.60;62.40
12977;DHT22;6553;48.412;9.514;2022-12-24T04:39:26;18.70;62.50
12977;DHT22;6553;48.412;9.514;2022-12-24T04:41:52;18.60;62.30
12977;DHT22;6553;48.412;9.514;2022-12-24T04:44:18;18.70;62.50
12977;DHT22;6553;48.412;9.514;2022-12-24T04:46:44;18.60;62.30
12977;DHT22;6553;48.412;9.514;2022-12-24T04:49:09;18.60;62.30
12977;DHT22;6553;48.412;9.514;2022-12-24T04:51:35;18.60;62.40
12977;DHT22;6553;48.412;9.514;2022-12-24T04:54:01;18.70;62.40
12977;DHT22;6553;48.412;9.514;2022-12-24T04:56:29;18.60;62.20
12977;DHT22;6553;48.412;9.514;2022-12-24T04:58:57;18.60;62.40
12977;DHT22;6553;48.412;9.514;2022-12-24T05:01:27;18.70;62.40
12977;DHT22;6553;48.412;9.514;2022-12-24T05:03:56;18.70;62.40
12977;DHT22;6553;48.412;9.514;2022-12-24T05:06:25;18.60;62.30
12977;DHT22;6553;48.412;9.514;2022-12-24T05:08:55;18.60;62.30
12977;DHT22;6553;48.412;9.514;2022-12-24T05:11:21;18.60;62.30
12977;DHT22;6553;48.412;9.514;2022-12-24T05:13:48;18.60;62.30
12977;DHT22;6553;48.412;9.514;2022-12-24T05:16:15;18.60;62.20
12977;DHT22;6553;48.412;9.514;2022-12-24T05:18:42;18.60;62.30
12977;DHT22;6553;48.412;9.514;2022-12-24T05:21:09;18.60;62.20
12977;DHT22;6553;48.412;9.514;2022-12-24T05:23:37;18.60;62.20
12977;DHT22;6553;48.412;9.514;2022-12-24T05:29:05;18.60;62.30
12977;DHT22;6553;48.412;9.514;2022-12-24T05:31:32;18.60;62.20
12977;DHT22;6553;48.412;9.514;2022-12-24T05:33:59;18.60;62.20
12977;DHT22;6553;48.412;9.514;2022-12-24T05:36:26;18.60;62.20
12977;DHT22;6553;48.412;9.514;2022-12-24T05:38:52;18.60;62.30
12977;DHT22;6553;48.412;9.514;2022-12-24T05:41:18;18.60;62.20
12977;DHT22;6553;48.412;9.514;2022-12-24T05:43:43;18.60;62.20
12977;DHT22;6553;48.412;9.514;2022-12-24T05:46:12;18.60;62.20
12977;DHT22;6553;48.412;9.514;2022-12-24T05:48:39;18.60;62.20
12977;DHT22;6553;48.412;9.514;2022-12-24T05:51:07;18.60;62.20
12977;DHT22;6553;48.412;9.514;2022-12-24T05:53:35;18.60;62.20
12977;DHT22;6553;48.412;9.514;2022-12-24T05:56:06;18.60;62.20
12977;DHT22;6553;48.412;9.514;2022-12-24T05:58:38;18.60;62.10
12977;DHT22;6553;48.412;9.514;2022-12-24T06:01:05;18.60;62.20
12977;DHT22;6553;48.412;9.514;2022-12-24T06:03:32;18.60;62.10
12977;DHT22;6553;48.412;9.514;2022-12-24T06:06:01;18.60;62.20
12977;DHT22;6553;48.412;9.514;2022-12-24T06:08:30;18.60;62.10
12977;DHT22;6553;48.412;9.514;2022-12-24T06:11:02;18.60;62.20
12977;DHT22;6553;48.412;9.514;2022-12-24T06:13:29;18.60;62.20
12977;DHT22;6553;48.412;9.514;2022-12-24T06:15:57;18.60;62.20
12977;DHT22;6553;48.412;9.514;2022-12-24T06:18:24;18.60;62.10
12977;DHT22;6553;48.412;9.514;2022-12-24T06:20:51;18.60;62.10
12977;DHT22;6553;48.412;9.514;2022-12-24T06:23:19;18.60;62.20
12977;DHT22;6553;48.412;9.514;2022-12-24T06:25:45;18.60;62.10
12977;DHT22;6553;48.412;9.514;2022-12-24T06:28:13;18.60;62.20
12977;DHT22;6553;48.412;9.514;2022-12-24T06:30:39;18.60;62.20
12977;DHT22;6553;48.412;9.514;2022-12-24T06:33:05;18.60;62.20
12977;DHT22;6553;48.412;9.514;2022-12-24T06:35:32;18.60;62.20
12977;DHT22;6553;48.412;9.514;2022-12-24T06:37:58;18.60;62.10
12977;DHT22;6553;48.412;9.514;2022-12-24T06:40:25;18.60;62.10
12977;DHT22;6553;48.412;9.514;2022-12-24T06:42:51;18.60;62.10
12977;DHT22;6553;48.412;9.514;2022-12-24T06:45:17;18.60;62.10
12977;DHT22;6553;48.412;9.514;2022-12-24T06:47:42;18.50;62.00
12977;DHT22;6553;48.412;9.514;2022-12-24T06:50:08;18.60;62.20
12977;DHT22;6553;48.412;9.514;2022-12-24T06:52:34;18.60;62.10
12977;DHT22;6553;48.412;9.514;2022-12-24T06:55:01;18.60;62.10
12977;DHT22;6553;48.412;9.514;2022-12-24T06:57:27;18.60;62.10
12977;DHT22;6553;48.412;9.514;2022-12-24T06:59:52;18.60;62.00
12977;DHT22;6553;48.412;9.514;2022-12-24T07:02:18;18.60;62.00
12977;DHT22;6553;48.412;9.514;2022-12-24T07:04:44;18.60;62.00
12977;DHT22;6553;48.412;9.514;2022-12-24T07:07:10;18.60;62.00
12977;DHT22;6553;48.412;9.514;2022-12-24T07:09:35;18.60;62.00
12977;DHT22;6553;48.412;9.514;2022-12-24T07:12:01;18.60;62.00
12977;DHT22;6553;48.412;9.514;2022-12-24T07:14:27;18.60;62.00
12977;DHT22;6553;48.412;9.514;2022-12-24T07:16:53;18.60;62.00
12977;DHT22;6553;48.412;9.514;2022-12-24T07:19:18;18.60;62.10
12977;DHT22;6553;48.412;9.514;2022-12-24T07:21:44;18.50;61.90
12977;DHT22;6553;48.412;9.514;2022-12-24T07:24:10;18.60;62.80
12977;DHT22;6553;48.412;9.514;2022-12-24T07:26:35;18.60;62.00
12977;DHT22;6553;48.412;9.514;2022-12-24T07:29:01;18.50;61.90
12977;DHT22;6553;48.412;9.514;2022-12-24T07:31:27;18.50;61.90
12977;DHT22;6553;48.412;9.514;2022-12-24T07:33:52;18.60;62.00
12977;DHT22;6553;48.412;9.514;2022-12-24T07:36:20;18.60;62.00
12977;DHT22;6553;48.412;9.514;2022-12-24T07:38:47;18.60;62.00
12977;DHT22;6553;48.412;9.514;2022-12-24T07:41:13;18.60;61.90
12977;DHT22;6553;48.412;9.514;2022-12-24T07:43:39;18.50;61.70
12977;DHT22;6553;48.412;9.514;2022-12-24T07:46:05;18.60;61.90
12977;DHT22;6553;48.412;9.514;2022-12-24T07:48:31;18.50;61.80
12977;DHT22;6553;48.412;9.514;2022-12-24T07:50:58;18.50;61.70
12977;DHT22;6553;48.412;9.514;2022-12-24T07:53:27;18.50;61.80
12977;DHT22;6553;48.412;9.514;2022-12-24T07:55:55;18.50;61.70
12977;DHT22;6553;48.412;9.514;2022-12-24T07:58:21;18.50;61.70
12977;DHT22;6553;48.412;9.514;2022-12-24T08:00:47;18.60;61.80
12977;DHT22;6553;48.412;9.514;2022-12-24T08:03:20;18.60;61.80
12977;DHT22;6553;48.412;9.514;2022-12-24T08:05:46;18.50;61.70
12977;DHT22;6553;48.412;9.514;2022-12-24T08:08:13;18.50;61.70
12977;DHT22;6553;48.412;9.514;2022-12-24T08:10:39;18.50;61.80
12977;DHT22;6553;48.412;9.514;2022-12-24T08:13:06;18.60;61.80
12977;DHT22;6553;48.412;9.514;2022-12-24T08:15:32;18.50;61.70
12977;DHT22;6553;48.412;9.514;2022-12-24T08:17:59;18.60;61.90
12977;DHT22;6553;48.412;9.514;2022-12-24T08:20:25;18.60;61.80
12977;DHT22;6553;48.412;9.514;2022-12-24T08:22:52;18.50;61.70
12977;DHT22;6553;48.412;9.514;2022-12-24T08:25:18;18.60;61.80
12977;DHT22;6553;48.412;9.514;2022-12-24T08:27:45;18.50;61.80
12977;DHT22;6553;48.412;9.514;2022-12-24T08:30:12;18.50;61.80
12977;DHT22;6553;48.412;9.514;2022-12-24T08:32:38;18.60;61.90
12977;DHT22;6553;48.412;9.514;2022-12-24T08:35:04;18.60;61.90
12977;DHT22;6553;48.412;9.514;2022-12-24T08:37:30;18.50;61.70
12977;DHT22;6553;48.412;9.514;2022-12-24T08:39:56;18.50;61.70
12977;DHT22;6553;48.412;9.514;2022-12-24T08:42:22;18.50;61.80
12977;DHT22;6553;48.412;9.514;2022-12-24T08:44:48;18.50;61.80
12977;DHT22;6553;48.412;9.514;2022-12-24T08:47:14;18.60;61.80
12977;DHT22;6553;48.412;9.514;2022-12-24T08:49:39;18.60;61.90
12977;DHT22;6553;48.412;9.514;2022-12-24T08:52:05;18.60;61.80
12977;DHT22;6553;48.412;9.514;2022-12-24T08:54:31;18.60;61.80
12977;DHT22;6553;48.412;9.514;2022-12-24T08:56:57;18.50;61.70
12977;DHT22;6553;48.412;9.514;2022-12-24T08:59:22;18.60;61.80
12977;DHT22;6553;48.412;9.514;2022-12-24T09:01:48;18.60;61.80
12977;DHT22;6553;48.412;9.514;2022-12-24T09:04:14;18.50;61.70
12977;DHT22;6553;48.412;9.514;2022-12-24T09:06:40;18.50;61.70
12977;DHT22;6553;48.412;9.514;2022-12-24T09:09:05;18.60;61.80
12977;DHT22;6553;48.412;9.514;2022-12-24T09:11:33;18.50;61.80
12977;DHT22;6553;48.412;9.514;2022-12-24T09:14:00;18.60;61.80
12977;DHT22;6553;48.412;9.514;2022-12-24T09:16:26;18.50;61.70
12977;DHT22;6553;48.412;9.514;2022-12-24T09:18:52;18.50;61.70
12977;DHT22;6553;48.412;9.514;2022-12-24T09:21:18;18.50;61.70
12977;DHT22;6553;48.412;9.514;2022-12-24T09:23:45;18.50;61.70
12977;DHT22;6553;48.412;9.514;2022-12-24T09:26:16;18.60;61.80
12977;DHT22;6553;48.412;9.514;2022-12-24T09:28:48;18.50;61.70
12977;DHT22;6553;48.412;9.514;2022-12-24T09:31:15;18.60;61.80
12977;DHT22;6553;48.412;9.514;2022-12-24T09:33:43;18.60;61.70
12977;DHT22;6553;48.412;9.514;2022-12-24T09:36:10;18.60;61.70
12977;DHT22;6553;48.412;9.514;2022-12-24T09:38:37;18.60;61.70
12977;DHT22;6553;48.412;9.514;2022-12-24T09:43:52;18.60;61.70
12977;DHT22;6553;48.412;9.514;2022-12-24T09:46:32;18.60;61.80
12977;DHT22;6553;48.412;9.514;2022-12-24T09:49:03;18.60;62.00
12977;DHT22;6553;48.412;9.514;2022-12-24T09:51:41;18.60;61.90
12977;DHT22;6553;48.412;9.514;2022-12-24T09:54:40;18.60;61.90
12977;DHT22;6553;48.412;9.514;2022-12-24T09:57:31;18.60;61.80
12977;DHT22;6553;48.412;9.514;2022-12-24T10:00:02;18.60;61.80
12977;DHT22;6553;48.412;9.514;2022-12-24T10:02:35;18.60;61.80
12977;DHT22;6553;48.412;9.514;2022-12-24T10:05:01;18.60;61.80
12977;DHT22;6553;48.412;9.514;2022-12-24T10:10:33;18.60;61.90
12977;DHT22;6553;48.412;9.514;2022-12-24T10:16:31;18.60;62.00
12977;DHT22;6553;48.412;9.514;2022-12-24T10:19:49;18.60;62.00
12977;DHT22;6553;48.412;9.514;2022-12-24T10:25:26;18.60;62.00
12977;DHT22;6553;48.412;9.514;2022-12-24T10:27:59;18.60;61.90
12977;DHT22;6553;48.412;9.514;2022-12-24T10:30:28;18.60;62.00
12977;DHT22;6553;48.412;9.514;2022-12-24T10:32:54;18.60;61.90
12977;DHT22;6553;48.412;9.514;2022-12-24T10:35:35;18.60;61.90
12977;DHT22;6553;48.412;9.514;2022-12-24T10:38:07;18.60;61.90
12977;DHT22;6553;48.412;9.514;2022-12-24T10:40:46;18.60;61.90
12977;DHT22;6553;48.412;9.514;2022-12-24T10:43:20;18.60;61.90
12977;DHT22;6553;48.412;9.514;2022-12-24T10:45:50;18.60;61.80
12977;DHT22;6553;48.412;9.514;2022-12-24T10:48:42;18.60;61.90
12977;DHT22;6553;48.412;9.514;2022-12-24T10:54:13;18.60;61.90
12977;DHT22;6553;48.412;9.514;2022-12-24T10:56:47;18.60;62.00
12977;DHT22;6553;48.412;9.514;2022-12-24T10:59:48;18.60;61.90
12977;DHT22;6553;48.412;9.514;2022-12-24T11:05:00;18.60;61.90
12977;DHT22;6553;48.412;9.514;2022-12-24T11:07:28;18.60;61.80
12977;DHT22;6553;48.412;9.514;2022-12-24T11:10:06;18.60;61.90
12977;DHT22;6553;48.412;9.514;2022-12-24T11:12:36;18.60;61.90
12977;DHT22;6553;48.412;9.514;2022-12-24T11:15:19;18.60;61.80
12977;DHT22;6553;48.412;9.514;2022-12-24T11:18:00;18.60;61.90
12977;DHT22;6553;48.412;9.514;2022-12-24T11:20:32;18.60;61.90
12977;DHT22;6553;48.412;9.514;2022-12-24T11:22:59;18.60;61.90
12977;DHT22;6553;48.412;9.514;2022-12-24T11:25:30;18.60;61.90
12977;DHT22;6553;48.412;9.514;2022-12-24T11:28:21;18.60;61.90
12977;DHT22;6553;48.412;9.514;2022-12-24T11:31:04;18.60;61.90
12977;DHT22;6553;48.412;9.514;2022-12-24T11:33:49;18.60;61.90
12977;DHT22;6553;48.412;9.514;2022-12-24T11:36:22;18.60;61.80
12977;DHT22;6553;48.412;9.514;2022-12-24T11:38:52;18.60;61.90
12977;DHT22;6553;48.412;9.514;2022-12-24T11:41:21;18.60;61.90
12977;DHT22;6553;48.412;9.514;2022-12-24T11:43:49;18.60;61.90
12977;DHT22;6553;48.412;9.514;2022-12-24T11:46:40;18.60;61.90
12977;DHT22;6553;48.412;9.514;2022-12-24T11:51:39;18.60;62.10
12977;DHT22;6553;48.412;9.514;2022-12-24T11:54:25;18.60;62.20
12977;DHT22;6553;48.412;9.514;2022-12-24T11:56:55;18.60;62.30
12977;DHT22;6553;48.412;9.514;2022-12-24T11:59:32;18.60;62.20
12977;DHT22;6553;48.412;9.514;2022-12-24T12:05:10;18.60;62.20
12977;DHT22;6553;48.412;9.514;2022-12-24T12:07:41;18.60;62.10
12977;DHT22;6553;48.412;9.514;2022-12-24T12:10:24;18.60;62.10
12977;DHT22;6553;48.412;9.514;2022-12-24T12:13:16;18.60;62.10
12977;DHT22;6553;48.412;9.514;2022-12-24T12:15:57;18.60;62.00
12977;DHT22;6553;48.412;9.514;2022-12-24T12:18:51;18.60;62.10
12977;DHT22;6553;48.412;9.514;2022-12-24T12:21:39;18.60;62.30
12977;DHT22;6553;48.412;9.514;2022-12-24T12:24:18;18.60;62.50
12977;DHT22;6553;48.412;9.514;2022-12-24T12:27:00;18.60;62.40
12977;DHT22;6553;48.412;9.514;2022-12-24T12:29:35;18.60;62.40
12977;DHT22;6553;48.412;9.514;2022-12-24T12:32:44;18.60;62.40
12977;DHT22;6553;48.412;9.514;2022-12-24T12:35:29;18.60;62.40
12977;DHT22;6553;48.412;9.514;2022-12-24T12:38:15;18.60;62.40
12977;DHT22;6553;48.412;9.514;2022-12-24T12:41:12;18.60;62.40
12977;DHT22;6553;48.412;9.514;2022-12-24T12:50:39;18.60;62.30
12977;DHT22;6553;48.412;9.514;2022-12-24T12:56:32;18.60;62.70
12977;DHT22;6553;48.412;9.514;2022-12-24T12:59:04;18.60;62.70
12977;DHT22;6553;48.412;9.514;2022-12-24T13:13:54;18.60;62.70
12977;DHT22;6553;48.412;9.514;2022-12-24T13:16:52;18.60;62.60
12977;DHT22;6553;48.412;9.514;2022-12-24T13:22:16;18.60;62.60
12977;DHT22;6553;48.412;9.514;2022-12-24T13:24:51;18.60;62.50
12977;DHT22;6553;48.412;9.514;2022-12-24T13:27:28;18.60;62.50
12977;DHT22;6553;48.412;9.514;2022-12-24T13:30:33;18.60;62.40
12977;DHT22;6553;48.412;9.514;2022-12-24T13:33:02;18.60;62.50
12977;DHT22;6553;48.412;9.514;2022-12-24T13:35:33;18.60;62.50
12977;DHT22;6553;48.412;9.514;2022-12-24T13:38:31;18.60;62.60
12977;DHT22;6553;48.412;9.514;2022-12-24T13:49:40;18.60;62.50
12977;DHT22;6553;48.412;9.514;2022-12-24T13:54:41;18.60;62.50
12977;DHT22;6553;48.412;9.514;2022-12-24T14:02:51;18.60;62.50
12977;DHT22;6553;48.412;9.514;2022-12-24T14:05:58;18.60;62.40
12977;DHT22;6553;48.412;9.514;2022-12-24T14:08:25;18.60;62.50
12977;DHT22;6553;48.412;9.514;2022-12-24T14:11:13;18.60;62.60
12977;DHT22;6553;48.412;9.514;2022-12-24T14:21:55;18.60;62.40
12977;DHT22;6553;48.412;9.514;2022-12-24T14:24:34;18.60;62.40
12977;DHT22;6553;48.412;9.514;2022-12-24T14:27:20;18.60;62.50
12977;DHT22;6553;48.412;9.514;2022-12-24T14:30:23;18.60;62.50
12977;DHT22;6553;48.412;9.514;2022-12-24T14:32:52;18.60;62.50
12977;DHT22;6553;48.412;9.514;2022-12-24T14:35:27;18.60;62.40
12977;DHT22;6553;48.412;9.514;2022-12-24T14:38:14;18.60;62.40
12977;DHT22;6553;48.412;9.514;2022-12-24T14:41:03;18.60;62.40
12977;DHT22;6553;48.412;9.514;2022-12-24T14:53:18;18.60;62.50
12977;DHT22;6553;48.412;9.514;2022-12-24T14:55:49;18.60;62.60
12977;DHT22;6553;48.412;9.514;2022-12-24T14:58:31;18.60;62.60
12977;DHT22;6553;48.412;9.514;2022-12-24T15:01:22;18.60;62.50
12977;DHT22;6553;48.412;9.514;2022-12-24T15:04:13;18.50;62.30
12977;DHT22;6553;48.412;9.514;2022-12-24T15:06:49;18.60;62.50
12977;DHT22;6553;48.412;9.514;2022-12-24T15:09:23;18.50;62.30
12977;DHT22;6553;48.412;9.514;2022-12-24T15:11:53;18.60;62.50
12977;DHT22;6553;48.412;9.514;2022-12-24T15:14:23;18.60;62.60
12977;DHT22;6553;48.412;9.514;2022-12-24T15:17:01;18.60;62.60
12977;DHT22;6553;48.412;9.514;2022-12-24T15:19:36;18.50;62.40
12977;DHT22;6553;48.412;9.514;2022-12-24T15:22:08;18.50;62.40
12977;DHT22;6553;48.412;9.514;2022-12-24T15:24:44;18.50;62.40
12977;DHT22;6553;48.412;9.514;2022-12-24T15:27:32;18.50;62.40
12977;DHT22;6553;48.412;9.514;2022-12-24T15:30:11;18.50;62.40
12977;DHT22;6553;48.412;9.514;2022-12-24T15:32:39;18.50;62.50
12977;DHT22;6553;48.412;9.514;2022-12-24T15:35:05;18.50;62.50
12977;DHT22;6553;48.412;9.514;2022-12-24T15:37:35;18.50;62.50
12977;DHT22;6553;48.412;9.514;2022-12-24T15:40:10;18.50;62.50
12977;DHT22;6553;48.412;9.514;2022-12-24T15:42:45;18.50;62.50
12977;DHT22;6553;48.412;9.514;2022-12-24T15:45:17;18.50;62.50
12977;DHT22;6553;48.412;9.514;2022-12-24T15:48:07;18.50;62.40
12977;DHT22;6553;48.412;9.514;2022-12-24T15:50:37;18.60;62.60
12977;DHT22;6553;48.412;9.514;2022-12-24T15:53:14;18.50;62.40
12977;DHT22;6553;48.412;9.514;2022-12-24T15:55:58;18.50;62.50
12977;DHT22;6553;48.412;9.514;2022-12-24T15:58:32;18.50;62.50
12977;DHT22;6553;48.412;9.514;2022-12-24T16:03:40;18.50;62.50
12977;DHT22;6553;48.412;9.514;2022-12-24T16:06:19;18.50;62.40
12977;DHT22;6553;48.412;9.514;2022-12-24T16:08:47;18.50;63.00
12977;DHT22;6553;48.412;9.514;2022-12-24T16:16:17;18.50;62.90
12977;DHT22;6553;48.412;9.514;2022-12-24T16:18:58;18.50;62.80
12977;DHT22;6553;48.412;9.514;2022-12-24T16:24:14;18.50;62.90
12977;DHT22;6553;48.412;9.514;2022-12-24T16:26:45;18.50;62.80
12977;DHT22;6553;48.412;9.514;2022-12-24T16:29:11;18.50;62.80
12977;DHT22;6553;48.412;9.514;2022-12-24T16:31:43;18.50;62.80
12977;DHT22;6553;48.412;9.514;2022-12-24T16:34:12;18.50;62.70
12977;DHT22;6553;48.412;9.514;2022-12-24T16:36:40;18.50;62.80
12977;DHT22;6553;48.412;9.514;2022-12-24T16:41:54;18.50;62.80
12977;DHT22;6553;48.412;9.514;2022-12-24T16:44:40;18.50;62.80
12977;DHT22;6553;48.412;9.514;2022-12-24T16:47:14;18.50;62.80
12977;DHT22;6553;48.412;9.514;2022-12-24T16:49:43;18.50;62.80
12977;DHT22;6553;48.412;9.514;2022-12-24T16:52:18;18.50;62.80
12977;DHT22;6553;48.412;9.514;2022-12-24T16:54:47;18.50;62.80
12977;DHT22;6553;48.412;9.514;2022-12-24T16:57:13;18.50;62.80
12977;DHT22;6553;48.412;9.514;2022-12-24T16:59:40;18.50;62.80
12977;DHT22;6553;48.412;9.514;2022-12-24T17:02:06;18.50;62.90
12977;DHT22;6553;48.412;9.514;2022-12-24T17:04:34;18.50;62.80
12977;DHT22;6553;48.412;9.514;2022-12-24T17:07:00;18.50;62.90
12977;DHT22;6553;48.412;9.514;2022-12-24T17:09:26;18.50;62.80
12977;DHT22;6553;48.412;9.514;2022-12-24T17:11:51;18.50;62.70
12977;DHT22;6553;48.412;9.514;2022-12-24T17:14:17;18.50;62.70
12977;DHT22;6553;48.412;9.514;2022-12-24T17:16:43;18.50;62.80
12977;DHT22;6553;48.412;9.514;2022-12-24T17:19:09;18.50;62.70
12977;DHT22;6553;48.412;9.514;2022-12-24T17:21:35;18.50;62.70
12977;DHT22;6553;48.412;9.514;2022-12-24T17:24:01;18.50;62.80
12977;DHT22;6553;48.412;9.514;2022-12-24T17:26:26;18.50;62.80
12977;DHT22;6553;48.412;9.514;2022-12-24T17:28:54;18.40;62.60
12977;DHT22;6553;48.412;9.514;2022-12-24T17:31:21;18.50;62.70
12977;DHT22;6553;48.412;9.514;2022-12-24T17:33:51;18.50;62.80
12977;DHT22;6553;48.412;9.514;2022-12-24T17:36:18;18.50;62.80
12977;DHT22;6553;48.412;9.514;2022-12-24T17:38:45;18.50;62.80
12977;DHT22;6553;48.412;9.514;2022-12-24T17:41:13;18.50;62.80
12977;DHT22;6553;48.412;9.514;2022-12-24T17:43:41;18.50;62.80
12977;DHT22;6553;48.412;9.514;2022-12-24T17:46:12;18.50;62.80
12977;DHT22;6553;48.412;9.514;2022-12-24T17:48:40;18.40;62.70
12977;DHT22;6553;48.412;9.514;2022-12-24T17:51:09;18.50;62.80
12977;DHT22;6553;48.412;9.514;2022-12-24T17:53:38;18.50;62.80
12977;DHT22;6553;48.412;9.514;2022-12-24T17:56:06;18.50;62.90
12977;DHT22;6553;48.412;9.514;2022-12-24T17:58:35;18.50;63.50
12977;DHT22;6553;48.412;9.514;2022-12-24T18:01:01;18.50;63.30
12977;DHT22;6553;48.412;9.514;2022-12-24T18:03:27;18.50;63.30
12977;DHT22;6553;48.412;9.514;2022-12-24T18:05:53;18.50;63.40
12977;DHT22;6553;48.412;9.514;2022-12-24T18:08:19;18.50;63.30
12977;DHT22;6553;48.412;9.514;2022-12-24T18:10:46;18.50;63.30
12977;DHT22;6553;48.412;9.514;2022-12-24T18:13:12;18.50;63.30
12977;DHT22;6553;48.412;9.514;2022-12-24T18:15:38;18.50;63.30
12977;DHT22;6553;48.412;9.514;2022-12-24T18:18:05;18.50;63.30